Time,TemperatureF,DewpointF,PressureIn,WindDirection,WindDirectionDegrees,WindSpeedMPH,WindSpeedGustMPH,Humidity,HourlyPrecipIn,Conditions,Clouds,dailyrainin,SolarRadiationWatts/m^2,SoftwareType,DateUTC
2013-06-03 00:02:00,55.0,41.0,-100.00,SSW,197,0.0,0.0,58,0.00,,,0.00,0.000000,,2013-06-03 07:02:00,
2013-06-03 00:12:00,55.0,41.0,-100.00,SSW,197,0.0,0.0,58,0.00,,,0.00,0.000000,,2013-06-03 07:12:00,
2013-06-03 00:32:00,54.0,40.0,-100.00,SSW,212,0.0,0.0,58,0.00,,,0.00,0.000000,,2013-06-03 07:32:00,
2013-06-03 00:42:00,54.0,40.0,-100.00,SSW,212,0.0,0.0,58,0.00,,,0.00,0.000000,,2013-06-03 07:42:00,
2013-06-03 00:52:00,54.0,40.0,-100.00,SSW,212,0.0,0.0,58,0.00,,,0.00,0.000000,,2013-06-03 07:52:00,
2013-06-03 01:02:00,54.0,40.0,-100.00,SSW,212,0.0,0.0,58,0.00,,,0.00,0.000000,,2013-06-03 08:02:00,
2013-06-03 01:12:00,54.0,40.0,-100.00,SSW,212,0.0,0.0,58,0.00,,,0.00,0.000000,,2013-06-03 08:12:00,
2013-06-03 01:42:00,52.0,33.0,-100.00,SSW,200,0.0,0.0,49,0.00,,,0.00,0.000000,,2013-06-03 08:42:00,
2013-06-03 01:52:00,52.0,33.0,-100.00,SSW,200,0.0,0.0,49,0.00,,,0.00,0.000000,,2013-06-03 08:52:00,
2013-06-03 02:02:00,52.0,33.0,-100.00,SSW,200,0.0,0.0,49,0.00,,,0.00,0.000000,,2013-06-03 09:02:00,
2013-06-03 02:12:00,52.0,33.0,-100.00,SSW,200,0.0,0.0,49,0.00,,,0.00,0.000000,,2013-06-03 09:12:00,
2013-06-03 02:43:00,52.0,32.0,-100.00,North,9,3.0,5.0,47,-99.99,,,0.00,0.000000,,2013-06-03 09:43:00,
2013-06-03 02:53:00,52.0,32.0,-100.00,North,9,3.0,5.0,47,-99.99,,,0.00,0.000000,,2013-06-03 09:53:00,
2013-06-03 03:02:00,52.0,32.0,-100.00,North,9,3.0,5.0,47,-99.99,,,0.00,0.000000,,2013-06-03 10:02:00,
2013-06-03 03:12:00,52.0,32.0,-100.00,North,9,3.0,5.0,47,-99.99,,,0.00,0.000000,,2013-06-03 10:12:00,
2013-06-03 03:33:00,53.0,30.0,-100.00,NNW,341,0.0,5.0,41,0.00,,,0.00,0.000000,,2013-06-03 10:33:00,
2013-06-03 03:42:00,53.0,30.0,-100.00,NNW,341,0.0,5.0,41,0.00,,,0.00,0.000000,,2013-06-03 10:42:00,
2013-06-03 03:52:00,53.0,30.0,-100.00,NNW,341,0.0,5.0,41,0.00,,,0.00,0.000000,,2013-06-03 10:52:00,
2013-06-03 04:02:00,53.0,30.0,-100.00,NNW,341,0.0,5.0,41,0.00,,,0.00,0.000000,,2013-06-03 11:02:00,
2013-06-03 04:12:00,53.0,30.0,-100.00,NNW,341,0.0,5.0,41,0.00,,,0.00,0.000000,,2013-06-03 11:12:00,
2013-06-03 04:32:00,52.0,30.0,-100.00,North,359,0.0,0.0,43,0.00,,,0.00,0.000000,,2013-06-03 11:32:00,
2013-06-03 04:42:00,52.0,30.0,-100.00,North,359,0.0,0.0,43,0.00,,,0.00,0.000000,,2013-06-03 11:42:00,
2013-06-03 04:52:00,52.0,30.0,-100.00,North,359,0.0,0.0,43,0.00,,,0.00,0.000000,,2013-06-03 11:52:00,
2013-06-03 05:02:00,52.0,30.0,-100.00,North,359,0.0,0.0,43,0.00,,,0.00,0.000000,,2013-06-03 12:02:00,
2013-06-03 05:12:00,52.0,30.0,-100.00,North,359,0.0,0.0,43,0.00,,,0.00,0.000000,,2013-06-03 12:12:00,
2013-06-03 05:32:00,49.0,29.0,-100.00,SSW,202,0.0,0.0,46,0.00,,,0.00,0.000000,,2013-06-03 12:32:00,
2013-06-03 05:42:00,49.0,29.0,-100.00,SSW,202,0.0,0.0,46,0.00,,,0.00,0.000000,,2013-06-03 12:42:00,
2013-06-03 05:52:00,49.0,29.0,-100.00,SSW,202,0.0,0.0,46,0.00,,,0.00,0.000000,,2013-06-03 12:52:00,
2013-06-03 06:02:00,49.0,29.0,-100.00,SSW,202,0.0,0.0,46,0.00,,,0.00,0.000000,,2013-06-03 13:02:00,
2013-06-03 06:12:00,49.0,29.0,-100.00,SSW,202,0.0,0.0,46,0.00,,,0.00,0.000000,,2013-06-03 13:12:00,
2013-06-03 06:43:00,51.0,29.0,-100.00,SSE,159,0.0,0.0,43,0.00,,,0.00,10.000000,,2013-06-03 13:43:00,
2013-06-03 06:52:00,51.0,29.0,-100.00,SSE,159,0.0,0.0,43,0.00,,,0.00,10.000000,,2013-06-03 13:52:00,
2013-06-03 07:02:00,51.0,29.0,-100.00,SSE,159,0.0,0.0,43,0.00,,,0.00,10.000000,,2013-06-03 14:02:00,
2013-06-03 07:12:00,51.0,29.0,-100.00,SSE,159,0.0,0.0,43,0.00,,,0.00,10.000000,,2013-06-03 14:12:00,
2013-06-03 07:33:00,67.0,32.0,-100.00,ESE,115,0.0,0.0,27,0.00,,,0.00,205.000000,,2013-06-03 14:33:00,
2013-06-03 07:42:00,67.0,32.0,-100.00,ESE,115,0.0,0.0,27,0.00,,,0.00,205.000000,,2013-06-03 14:42:00,
2013-06-03 07:52:00,67.0,32.0,-100.00,ESE,115,0.0,0.0,27,0.00,,,0.00,205.000000,,2013-06-03 14:52:00,
2013-06-03 08:02:00,67.0,32.0,-100.00,ESE,115,0.0,0.0,27,0.00,,,0.00,205.000000,,2013-06-03 15:02:00,
2013-06-03 08:12:00,67.0,32.0,-100.00,ESE,115,0.0,0.0,27,0.00,,,0.00,205.000000,,2013-06-03 15:12:00,
2013-06-03 08:43:00,76.0,34.0,-100.00,SSE,159,4.0,8.0,22,0.00,,,0.00,467.000000,,2013-06-03 15:43:00,
2013-06-03 08:53:00,76.0,34.0,-100.00,SSE,159,4.0,8.0,22,0.00,,,0.00,467.000000,,2013-06-03 15:53:00,
2013-06-03 09:03:00,76.0,34.0,-100.00,SSE,159,4.0,8.0,22,0.00,,,0.00,467.000000,,2013-06-03 16:03:00,
2013-06-03 09:12:00,76.0,34.0,-100.00,SSE,159,4.0,8.0,22,0.00,,,0.00,467.000000,,2013-06-03 16:12:00,
2013-06-03 09:33:00,78.0,35.0,-100.00,South,175,8.0,14.0,21,0.00,,,0.00,724.000000,,2013-06-03 16:33:00,
2013-06-03 10:33:00,80.0,40.0,-100.00,SSW,193,7.0,15.0,24,-99.99,,,0.00,949.000000,,2013-06-03 17:33:00,
2013-06-03 11:32:00,82.0,39.0,-100.00,SSE,161,5.0,13.0,22,-99.99,,,0.00,1122.000000,,2013-06-03 18:32:00,
2013-06-03 12:33:00,82.0,46.0,-100.00,SW,231,5.0,11.0,28,-99.99,,,0.00,1221.000000,,2013-06-03 19:33:00,
2013-06-03 13:33:00,83.0,47.0,-100.00,WSW,239,5.0,13.0,28,-99.99,,,0.00,1245.000000,,2013-06-03 20:33:00,
2013-06-03 14:43:00,82.0,47.0,-100.00,West,272,7.0,13.0,30,-99.99,,,0.00,1222.000000,,2013-06-03 21:43:00,
2013-06-03 14:53:00,82.0,47.0,-100.00,West,272,7.0,13.0,30,-99.99,,,0.00,1222.000000,,2013-06-03 21:53:00,
2013-06-03 15:02:00,82.0,47.0,-100.00,West,272,7.0,13.0,30,-99.99,,,0.00,1222.000000,,2013-06-03 22:02:00,
2013-06-03 15:12:00,82.0,47.0,-100.00,West,272,7.0,13.0,30,-99.99,,,0.00,1222.000000,,2013-06-03 22:12:00,
2013-06-03 15:33:00,84.0,50.0,-100.00,West,274,7.0,13.0,31,0.00,,,0.00,1129.000000,,2013-06-03 22:33:00,
2013-06-03 16:32:00,81.0,50.0,-100.00,West,269,6.0,13.0,34,-99.99,,,0.00,969.000000,,2013-06-03 23:32:00,
2013-06-03 17:32:00,78.0,51.0,-100.00,West,269,6.0,13.0,39,-99.99,,,-99.99,751.000000,,2013-06-04 00:32:00,
2013-06-03 17:42:00,78.0,51.0,-100.00,West,269,6.0,13.0,39,-99.99,,,-99.99,751.000000,,2013-06-04 00:42:00,
2013-06-03 17:52:00,78.0,51.0,-100.00,West,269,6.0,13.0,39,-99.99,,,-99.99,751.000000,,2013-06-04 00:52:00,
2013-06-03 18:02:00,78.0,51.0,-100.00,West,269,6.0,13.0,39,-99.99,,,-99.99,751.000000,,2013-06-04 01:02:00,
2013-06-03 18:12:00,78.0,51.0,-100.00,West,269,6.0,13.0,39,-99.99,,,-99.99,751.000000,,2013-06-04 01:12:00,
2013-06-03 18:32:00,73.0,51.0,-100.00,NW,309,5.0,11.0,46,-99.99,,,0.00,498.000000,,2013-06-04 01:32:00,
2013-06-03 18:42:00,73.0,51.0,-100.00,NW,309,5.0,11.0,46,-99.99,,,0.00,498.000000,,2013-06-04 01:42:00,
2013-06-03 18:52:00,73.0,51.0,-100.00,NW,309,5.0,11.0,46,-99.99,,,0.00,498.000000,,2013-06-04 01:52:00,
2013-06-03 19:02:00,73.0,51.0,-100.00,NW,309,5.0,11.0,46,-99.99,,,0.00,498.000000,,2013-06-04 02:02:00,
2013-06-03 19:12:00,73.0,51.0,-100.00,NW,309,5.0,11.0,46,-99.99,,,0.00,498.000000,,2013-06-04 02:12:00,
2013-06-03 19:32:00,69.0,52.0,-100.00,WNW,293,4.0,8.0,54,0.00,,,0.00,235.000000,,2013-06-04 02:32:00,
2013-06-03 19:42:00,69.0,52.0,-100.00,WNW,293,4.0,8.0,54,0.00,,,0.00,235.000000,,2013-06-04 02:42:00,
2013-06-03 19:52:00,69.0,52.0,-100.00,WNW,293,4.0,8.0,54,0.00,,,0.00,235.000000,,2013-06-04 02:52:00,
2013-06-03 20:02:00,69.0,52.0,-100.00,WNW,293,4.0,8.0,54,0.00,,,0.00,235.000000,,2013-06-04 03:02:00,
2013-06-03 20:12:00,69.0,52.0,-100.00,WNW,293,4.0,8.0,54,0.00,,,0.00,235.000000,,2013-06-04 03:12:00,
2013-06-03 20:33:00,59.0,50.0,-100.00,SE,128,0.0,7.0,72,0.00,,,0.00,12.000000,,2013-06-04 03:33:00,
2013-06-03 20:43:00,59.0,50.0,-100.00,SE,128,0.0,7.0,72,0.00,,,0.00,12.000000,,2013-06-04 03:43:00,
2013-06-03 20:53:00,59.0,50.0,-100.00,SE,128,0.0,7.0,72,0.00,,,0.00,12.000000,,2013-06-04 03:53:00,
2013-06-03 21:02:00,59.0,50.0,-100.00,SE,128,0.0,7.0,72,0.00,,,0.00,12.000000,,2013-06-04 04:02:00,
2013-06-03 21:13:00,59.0,50.0,-100.00,SE,128,0.0,7.0,72,0.00,,,0.00,12.000000,,2013-06-04 04:13:00,
2013-06-03 21:33:00,53.0,48.0,-100.00,SW,220,0.0,0.0,82,0.00,,,0.00,0.000000,,2013-06-04 04:33:00,
2013-06-03 21:42:00,53.0,48.0,-100.00,SW,220,0.0,0.0,82,0.00,,,0.00,0.000000,,2013-06-04 04:42:00,
2013-06-03 21:53:00,53.0,48.0,-100.00,SW,220,0.0,0.0,82,0.00,,,0.00,0.000000,,2013-06-04 04:53:00,
2013-06-03 22:02:00,53.0,48.0,-100.00,SW,220,0.0,0.0,82,0.00,,,0.00,0.000000,,2013-06-04 05:02:00,
2013-06-03 22:12:00,53.0,48.0,-100.00,SW,220,0.0,0.0,82,0.00,,,0.00,0.000000,,2013-06-04 05:12:00,
2013-06-03 22:32:00,52.0,46.0,-100.00,SSE,162,0.0,0.0,79,0.00,,,0.00,0.000000,,2013-06-04 05:32:00,
2013-06-03 22:42:00,52.0,46.0,-100.00,SSE,162,0.0,0.0,79,0.00,,,0.00,0.000000,,2013-06-04 05:42:00,
2013-06-03 22:52:00,52.0,46.0,-100.00,SSE,162,0.0,0.0,79,0.00,,,0.00,0.000000,,2013-06-04 05:52:00,
2013-06-03 23:02:00,52.0,46.0,-100.00,SSE,162,0.0,0.0,79,0.00,,,0.00,0.000000,,2013-06-04 06:02:00,
2013-06-03 23:12:00,52.0,46.0,-100.00,SSE,162,0.0,0.0,79,0.00,,,0.00,0.000000,,2013-06-04 06:12:00,
2013-06-03 23:32:00,50.0,38.0,-100.00,WNW,299,0.0,0.0,62,0.00,,,0.00,0.000000,,2013-06-04 06:32:00,
2013-06-03 23:42:00,50.0,38.0,-100.00,WNW,299,0.0,0.0,62,0.00,,,0.00,0.000000,,2013-06-04 06:42:00,
2013-06-03 23:52:00,50.0,38.0,-100.00,WNW,299,0.0,0.0,62,0.00,,,0.00,0.000000,,2013-06-04 06:52:00,